Información del aeropuerto LGKP

Información de pista
Pista 12 Longitud 7871 ft Anchura 98 ft
Elevación 36 ft Umbral 492 ft Rumbo 124
Pista 30 Longitud 7871 ft Anchura 98 ft
Elevación 62 ft Umbral 492 ft Rumbo 304
Frecuencias del aeropuerto
Tipo A/G Nombre RDO Frecuencia 563.7 MHZ
Tipo INFO Nombre INFO Frecuencia 122.1 MHZ
Radioayudas del aeropuerto
Tipo NDB Nombre Karpathos Frecuencia 314 KHZ
Tipo TACAN Nombre Karpathos Frecuencia 109600 KHZ
Información meteorológica del aeropuerto y NOTAM
ADDS - METARS form results

(0810 UTC 19 April 2021)
Data provider http://aviationweather.gov/metar/data/
 
METAR text: LGKP 190750Z 04004KT 9999 FEW020 23/12 Q1011
Conditions at: LGKP (KARPATHOS , GR) observed 0750 UTC 19 April 2021
Temperature: 23.0°C (73°F)
Dewpoint: 12.0°C (54°F) [RH = 50%]
Pressure (altimeter): 29.85 inches Hg (1011.0 mb)
Winds: from the NE (40 degrees) at 5 MPH (4 knots; 2.1 m/s)
Visibility: 6 or more miles (10+ km)
Ceiling: at least 12,000 feet AGL
Clouds: few clouds at 2000 feet AGL
Weather: no significant weather observed at this time

METAR text: LGKP 190720Z 32010KT 9999 FEW020 22/12 Q1012
Conditions at: LGKP (KARPATHOS , GR) observed 0720 UTC 19 April 2021
Temperature: 22.0°C (72°F)
Dewpoint: 12.0°C (54°F) [RH = 53%]
Pressure (altimeter): 29.88 inches Hg (1012.0 mb)
Winds: from the NW (320 degrees) at 12 MPH (10 knots; 5.1 m/s)
Visibility: 6 or more miles (10+ km)
Ceiling: at least 12,000 feet AGL
Clouds: few clouds at 2000 feet AGL
Weather: no significant weather observed at this time

Forecast for: LGKP (KARPATHOS , GR)
Text: TAF LGKP 190500Z 1906/1915 33018KT 8000 FEW025
Forecast period: 0600 to 1500 UTC 19 April 2021
Forecast type: FROM: standard forecast or significant change
Winds: from the NNW (330 degrees) at 21 MPH (18 knots; 9.3 m/s)
Visibility: 5 miles (8 km)
Ceiling: at least 12,000 feet AGL
Clouds: few clouds at 2500 feet AGL
Weather: no significant weather forecast for this period
Text: PROB40
Forecast period: 0600 to 1500 UTC 19 April 2021
Forecast type: TEMPORARY: The following changes expected for less than half the time period
Visibility: 2.49 miles (4.01 km)
Ceiling: unknown
Clouds: missing
Weather: DU  (widespread dust)